createdAt,value
2018-03-02T00:00:14.609Z,99744.94
2018-03-02T00:02:46.036Z,99743.39
2018-03-02T00:05:17.498Z,99739.40
2018-03-02T00:07:48.736Z,99744.86
2018-03-02T00:10:31.574Z,99746.32
2018-03-02T00:13:05.703Z,99739.33
2018-03-02T00:15:38.801Z,99716.17
2018-03-02T00:18:10.239Z,99730.84
2018-03-02T00:20:41.464Z,99726.50
2018-03-02T00:23:16.761Z,99719.24
2018-03-02T00:25:48.031Z,99716.17
2018-03-02T00:28:20.247Z,99716.97
2018-03-02T00:30:54.159Z,99708.71
2018-03-02T00:33:25.172Z,99710.74
2018-03-02T00:35:56.736Z,99710.97
2018-03-02T00:38:28.838Z,99705.44
2018-03-02T00:41:00.627Z,99696.91
2018-03-02T00:43:36.141Z,99699.02
2018-03-02T00:46:09.618Z,99691.99
2018-03-02T00:48:41.657Z,99692.61
2018-03-02T00:51:13.390Z,99694.09
2018-03-02T00:53:45.489Z,99690.27
2018-03-02T00:56:17.705Z,99684.78
2018-03-02T00:58:49.310Z,99686.93
2018-03-02T01:01:22.090Z,99682.25
2018-03-02T01:03:54.171Z,99682.37
2018-03-02T01:06:32.030Z,99671.53
2018-03-02T01:09:04.274Z,99672.57
2018-03-02T01:11:36.068Z,99669.46
2018-03-02T01:14:08.136Z,99667.54
2018-03-02T01:17:24.661Z,99656.38
2018-03-02T01:20:00.987Z,99662.90
2018-03-02T01:22:32.690Z,99664.94
2018-03-02T01:25:05.080Z,99662.14
2018-03-02T01:27:36.451Z,99668.66
2018-03-02T01:30:10.089Z,99657.42
2018-03-02T01:32:44.457Z,99658.87
2018-03-02T01:35:16.157Z,99654.87
2018-03-02T01:37:47.389Z,99650.80
2018-03-02T01:40:19.222Z,99652.16
2018-03-02T01:42:50.778Z,99642.16
2018-03-02T01:45:23.485Z,99643.16
2018-03-02T01:47:57.009Z,99636.25
2018-03-02T01:50:30.539Z,99631.19
2018-03-02T01:53:02.330Z,99630.04
2018-03-02T01:55:34.736Z,99630.03
2018-03-02T01:58:08.098Z,99621.81
2018-03-02T02:00:41.198Z,99640.50
2018-03-02T02:03:13.368Z,99621.55
2018-03-02T02:05:57.972Z,99618.09
2018-03-02T02:14:01.169Z,99616.19
2018-03-02T02:16:36.388Z,99609.35
2018-03-02T02:19:09.474Z,99606.25
2018-03-02T02:21:41.239Z,99600.91
2018-03-02T02:24:12.708Z,99601.48
2018-03-02T02:26:44.772Z,99588.86
2018-03-02T02:29:16.079Z,99592.73
2018-03-02T02:31:47.889Z,99595.34
2018-03-02T02:34:19.025Z,99589.89
2018-03-02T02:36:49.976Z,99586.59
2018-03-02T02:41:56.600Z,99580.09
2018-03-02T02:44:29.079Z,99585.51
2018-03-02T02:47:00.417Z,99587.27
2018-03-02T02:49:31.203Z,99590.66
2018-03-02T02:52:02.274Z,99581.33
2018-03-02T02:54:33.249Z,99583.81
2018-03-02T02:57:04.283Z,99581.63
2018-03-02T02:59:42.455Z,99571.47
2018-03-02T03:02:13.911Z,99576.84
2018-03-02T03:04:45.175Z,99568.45
2018-03-02T03:07:16.574Z,99559.77
2018-03-02T03:10:01.134Z,99564.05
2018-03-02T03:12:42.844Z,99564.59
2018-03-02T03:15:21.517Z,99553.56
2018-03-02T03:17:53.402Z,99553.08
2018-03-02T03:20:24.502Z,99545.64
2018-03-02T03:22:55.724Z,99538.73
2018-03-02T03:28:08.962Z,99534.59
2018-03-02T03:30:40.820Z,99534.75
2018-03-02T03:33:11.913Z,99528.91
2018-03-02T03:35:44.041Z,99533.38
2018-03-02T03:38:15.201Z,99536.12
2018-03-02T03:40:46.647Z,99536.34
2018-03-02T03:43:21.498Z,99541.91
2018-03-02T03:45:52.203Z,99541.03
2018-03-02T03:48:22.924Z,99536.36
2018-03-02T03:50:55.418Z,99533.98
2018-03-02T03:56:09.088Z,99502.92
2018-03-02T03:58:40.141Z,99516.19
2018-03-02T04:01:11.580Z,99526.06
2018-03-02T04:03:42.657Z,99521.03
2018-03-02T04:06:14.450Z,99526.46
2018-03-02T04:08:46.145Z,99524.92
2018-03-02T04:11:18.084Z,99514.90
2018-03-02T04:13:49.426Z,99513.41
2018-03-02T04:16:26.682Z,99503.02
2018-03-02T04:18:57.699Z,99514.30
2018-03-02T04:21:29.381Z,99507.61
2018-03-02T04:24:00.072Z,99503.50
2018-03-02T04:26:46.283Z,99498.05
2018-03-02T04:29:16.822Z,99495.03
2018-03-02T04:31:47.472Z,99493.45
2018-03-02T04:34:18.276Z,99490.72
2018-03-02T04:36:48.799Z,99490.91
2018-03-02T04:39:24.281Z,99483.95
2018-03-02T04:41:55.007Z,99483.91
2018-03-02T04:44:25.960Z,99472.88
2018-03-02T04:47:02.316Z,99473.05
2018-03-02T04:49:36.309Z,99470.44
2018-03-02T04:52:10.280Z,99467.13
2018-03-02T04:54:41.031Z,99472.83
2018-03-02T04:57:11.947Z,99469.23
2018-03-02T04:59:42.823Z,99472.22
2018-03-02T05:02:14.317Z,99463.89
2018-03-02T05:04:45.315Z,99461.66
2018-03-02T05:07:18.473Z,99453.74
2018-03-02T05:12:26.402Z,99448.55
2018-03-02T05:15:01.172Z,99442.59
2018-03-02T05:17:34.700Z,99438.97
2018-03-02T05:20:06.313Z,99440.96
2018-03-02T05:22:43.500Z,99438.05
2018-03-02T05:25:15.268Z,99442.72
2018-03-02T05:27:46.309Z,99437.20
2018-03-02T05:30:24.141Z,99445.29
2018-03-02T05:32:55.925Z,99437.66
2018-03-02T05:35:39.781Z,99438.51
2018-03-02T05:38:16.730Z,99436.02
2018-03-02T05:41:03.793Z,99425.19
2018-03-02T05:43:35.672Z,99428.18
2018-03-02T05:46:11.783Z,99422.94
2018-03-02T05:48:44.101Z,99425.88
2018-03-02T05:51:16.713Z,99421.97
2018-03-02T05:53:47.980Z,99433.39
2018-03-02T05:56:19.554Z,99426.17
2018-03-02T05:58:51.440Z,99425.92
2018-03-02T06:01:33.293Z,99426.88
2018-03-02T06:04:05.676Z,99421.47
2018-03-02T06:06:37.929Z,99416.13
2018-03-02T06:09:15.085Z,99417.23
2018-03-02T06:11:55.369Z,99415.78
2018-03-02T06:14:26.617Z,99413.80
2018-03-02T06:16:58.250Z,99409.40
2018-03-02T06:19:29.492Z,99402.28
2018-03-02T06:22:06.603Z,99409.25
2018-03-02T06:24:38.604Z,99401.55
2018-03-02T06:27:17.535Z,99380.40
2018-03-02T06:29:49.871Z,99388.20
2018-03-02T06:32:23.250Z,99385.06
2018-03-02T06:34:56.168Z,99389.80
2018-03-02T06:37:28.012Z,99376.64
2018-03-02T06:39:59.387Z,99392.63
2018-03-02T06:42:32.524Z,99398.55
2018-03-02T06:45:20.471Z,99401.61
2018-03-02T06:47:58.021Z,99401.17
2018-03-02T06:50:29.922Z,99395.51
2018-03-02T06:53:10.725Z,99387.97
2018-03-02T06:58:26.438Z,99390.66
2018-03-02T07:00:58.527Z,99389.97
2018-03-02T07:03:31.238Z,99362.53
2018-03-02T07:06:02.922Z,99386.45
2018-03-02T07:08:34.976Z,99388.55
2018-03-02T07:11:09.128Z,99390.09
2018-03-02T07:13:41.875Z,99376.05
2018-03-02T07:16:21.593Z,99384.91
2018-03-02T07:18:53.943Z,99383.52
2018-03-02T07:21:28.536Z,99384.63
2018-03-02T07:24:00.786Z,99376.51
2018-03-02T07:29:30.760Z,99381.53
2018-03-02T07:32:07.617Z,99374.11
2018-03-02T07:34:39.449Z,99388.28
2018-03-02T07:37:22.207Z,99389.28
2018-03-02T07:39:54.015Z,99382.34
2018-03-02T07:42:27.967Z,99375.56
2018-03-02T07:47:50.377Z,99377.48
2018-03-02T07:50:24.518Z,99371.27
2018-03-02T07:52:57.420Z,99369.64
2018-03-02T07:55:30.896Z,99362.98
2018-03-02T07:58:09.338Z,99369.20
2018-03-02T08:00:41.261Z,99352.17
2018-03-02T08:03:17.378Z,99355.25
2018-03-02T08:05:51.784Z,99343.98
2018-03-02T08:08:24.049Z,99344.36
2018-03-02T08:10:55.248Z,99348.25
2018-03-02T08:13:31.427Z,99342.89
2018-03-02T08:19:27.681Z,99344.64
2018-03-02T08:22:01.068Z,99345.55
2018-03-02T08:24:36.849Z,99342.80
2018-03-02T08:27:09.336Z,99336.27
2018-03-02T08:32:19.408Z,99330.92
2018-03-02T08:34:51.419Z,99334.00
2018-03-02T08:37:28.813Z,99330.08
2018-03-02T08:40:08.595Z,99336.16
2018-03-02T08:45:51.290Z,99329.28
2018-03-02T08:48:22.849Z,99335.05
2018-03-02T08:50:57.033Z,99350.05
2018-03-02T08:53:32.586Z,99333.11
2018-03-02T08:56:06.505Z,99327.17
2018-03-02T08:58:38.419Z,99324.25
2018-03-02T09:01:13.200Z,99324.70
2018-03-02T09:03:46.092Z,99308.41
2018-03-02T09:06:22.265Z,99315.27
2018-03-02T09:08:55.235Z,99319.84
2018-03-02T09:11:27.114Z,99316.29
2018-03-02T09:14:00.807Z,99315.62
2018-03-02T09:16:32.924Z,99311.97
2018-03-02T09:19:04.859Z,99318.77
2018-03-02T09:21:39.575Z,99313.78
2018-03-02T09:24:15.639Z,99317.52
2018-03-02T09:26:47.260Z,99314.37
2018-03-02T09:29:28.599Z,99314.56
2018-03-02T09:32:00.206Z,99310.70
2018-03-02T09:34:35.003Z,99320.06
2018-03-02T09:37:25.082Z,99321.62
2018-03-02T09:39:57.894Z,99324.66
2018-03-02T09:42:29.779Z,99326.48
2018-03-02T09:45:03.790Z,99317.19
2018-03-02T09:47:36.025Z,99331.86
2018-03-02T09:50:07.601Z,99334.11
2018-03-02T09:52:40.861Z,99327.09
2018-03-02T09:55:12.345Z,99335.36
2018-03-02T09:57:43.347Z,99337.28
2018-03-02T10:00:20.905Z,99324.16
2018-03-02T10:02:54.009Z,99322.50
2018-03-02T10:05:36.100Z,99326.37
2018-03-02T10:08:19.054Z,99322.97
2018-03-02T10:10:50.593Z,99324.38
2018-03-02T10:13:23.320Z,99338.32
2018-03-02T10:15:55.771Z,99321.50
2018-03-02T10:18:27.469Z,99325.53
2018-03-02T10:21:01.485Z,99323.70
2018-03-02T10:23:34.686Z,99323.99
2018-03-02T10:26:06.207Z,99324.86
2018-03-02T10:28:37.636Z,99339.77
2018-03-02T10:31:10.539Z,99330.23
2018-03-02T10:33:42.063Z,99331.02
2018-03-02T10:36:13.391Z,99338.92
2018-03-02T10:38:44.917Z,99331.63
2018-03-02T10:41:16.772Z,99330.83
2018-03-02T10:43:49.153Z,99328.64
2018-03-02T10:46:22.454Z,99325.55
2018-03-02T10:49:04.501Z,99320.30
2018-03-02T10:51:36.324Z,99330.50
2018-03-02T10:54:09.329Z,99326.80
2018-03-02T10:56:42.087Z,99333.64
2018-03-02T10:59:14.418Z,99330.97
2018-03-02T11:01:55.857Z,99333.43
2018-03-02T11:04:33.286Z,99328.41
2018-03-02T11:07:06.142Z,99339.77
2018-03-02T11:12:14.279Z,99331.53
2018-03-02T11:14:53.684Z,99335.06
2018-03-02T11:17:26.746Z,99331.95
2018-03-02T11:19:57.531Z,99336.52
2018-03-02T11:22:31.970Z,99332.84
2018-03-02T11:25:06.913Z,99325.72
2018-03-02T11:27:51.280Z,99325.25
2018-03-02T11:30:28.120Z,99297.92
2018-03-02T11:33:02.181Z,99316.22
2018-03-02T11:35:36.986Z,99328.05
2018-03-02T11:38:09.334Z,99304.12
2018-03-02T11:40:40.312Z,99318.80
2018-03-02T11:43:11.629Z,99308.02
2018-03-02T11:45:45.486Z,99300.50
2018-03-02T11:48:17.345Z,99304.03
2018-03-02T11:50:59.374Z,99304.97
2018-03-02T11:53:30.655Z,99303.59
2018-03-02T11:56:03.610Z,99293.39
2018-03-02T11:58:36.573Z,99290.22
2018-03-02T12:01:08.638Z,99293.98
2018-03-02T12:03:41.254Z,99289.81
2018-03-02T12:06:23.892Z,99300.95
2018-03-02T12:09:00.735Z,99284.22
2018-03-02T12:11:36.015Z,99295.67
2018-03-02T12:14:07.182Z,99286.11
2018-03-02T12:16:39.276Z,99268.50
2018-03-02T12:19:14.245Z,99290.86
2018-03-02T12:21:47.440Z,99294.56
2018-03-02T12:24:19.704Z,99281.91
2018-03-02T12:26:52.508Z,99285.47
2018-03-02T12:29:42.543Z,99280.98
2018-03-02T12:32:22.174Z,99273.16
2018-03-02T12:34:55.857Z,99283.26
2018-03-02T12:37:35.028Z,99284.84
2018-03-02T12:40:08.048Z,99280.08
2018-03-02T12:42:39.623Z,99285.34
2018-03-02T12:45:17.342Z,99275.63
2018-03-02T12:47:49.167Z,99281.50
2018-03-02T12:50:21.273Z,99279.23
2018-03-02T12:52:54.717Z,99281.97
2018-03-02T12:55:31.824Z,99279.90
2018-03-02T12:58:08.582Z,99280.23
2018-03-02T13:00:45.854Z,99282.61
2018-03-02T13:03:17.802Z,99284.09
2018-03-02T13:05:48.996Z,99296.78
2018-03-02T13:08:30.374Z,99285.39
2018-03-02T13:11:01.686Z,99285.36
2018-03-02T13:13:37.006Z,99278.86
2018-03-02T13:16:09.315Z,99272.38
2018-03-02T13:21:09.880Z,99242.55
2018-03-02T13:23:41.229Z,99276.24
2018-03-02T13:26:18.625Z,99268.66
2018-03-02T13:28:53.046Z,99269.75
2018-03-02T13:31:31.479Z,99217.10
2018-03-02T13:34:13.901Z,99268.11
2018-03-02T13:36:45.624Z,99254.70
2018-03-02T13:39:21.081Z,99252.73
2018-03-02T13:42:11.402Z,99260.58
2018-03-02T13:44:43.548Z,99250.88
2018-03-02T13:47:30.920Z,99263.47
2018-03-02T13:50:09.922Z,99255.66
2018-03-02T13:52:41.335Z,99251.23
2018-03-02T13:55:13.704Z,99242.95
2018-03-02T13:57:55.603Z,99240.04
2018-03-02T14:00:30.437Z,99240.36
2018-03-02T14:03:28.252Z,99225.09
2018-03-02T14:06:06.943Z,99232.09
2018-03-02T14:08:43.137Z,99231.73
2018-03-02T14:11:29.054Z,99226.16
2018-03-02T14:14:02.448Z,99218.44
2018-03-02T14:16:35.852Z,99212.69
2018-03-02T14:19:08.016Z,99210.41
2018-03-02T14:21:39.972Z,99209.68
2018-03-02T14:24:13.713Z,99206.02
2018-03-02T14:26:45.506Z,99217.44
2018-03-02T14:29:27.036Z,99222.95
2018-03-02T14:34:48.801Z,99209.36
2018-03-02T14:37:20.422Z,99204.02
2018-03-02T14:42:52.441Z,99208.47
2018-03-02T14:45:24.836Z,99200.36
2018-03-02T14:47:56.278Z,99217.55
2018-03-02T14:50:27.451Z,99209.00
2018-03-02T14:57:22.198Z,99213.08
2018-03-02T14:59:53.443Z,99213.34
2018-03-02T15:02:35.491Z,99213.38
2018-03-02T15:05:06.776Z,99209.80
2018-03-02T15:07:47.195Z,99198.95
2018-03-02T15:10:21.069Z,99207.13
2018-03-02T15:12:54.167Z,99200.65
2018-03-02T15:15:26.358Z,99198.51
2018-03-02T15:18:03.531Z,99196.72
2018-03-02T15:20:38.783Z,99207.48
2018-03-02T15:23:10.219Z,99207.97
2018-03-02T15:26:00.332Z,99208.92
2018-03-02T15:28:41.237Z,99201.84
2018-03-02T15:31:13.183Z,99222.28
2018-03-02T15:33:48.849Z,99224.86
2018-03-02T15:36:33.949Z,99217.43
2018-03-02T15:39:06.967Z,99234.41
2018-03-02T15:41:39.196Z,99223.83
2018-03-02T15:49:57.613Z,99246.54
2018-03-02T15:57:19.338Z,99248.25
2018-03-02T16:02:34.986Z,99255.80
2018-03-02T16:05:09.171Z,99254.73
2018-03-02T16:07:58.291Z,99250.07
2018-03-02T16:10:30.794Z,99242.83
2018-03-02T16:13:11.080Z,99250.01
2018-03-02T16:15:57.664Z,99249.98
2018-03-02T16:18:48.167Z,99256.66
2018-03-02T16:21:23.209Z,99264.84
2018-03-02T16:24:04.898Z,99262.88
2018-03-02T16:26:37.759Z,99270.31
2018-03-02T16:29:09.687Z,99274.30
2018-03-02T16:31:55.971Z,99272.19
2018-03-02T16:34:41.580Z,99270.70
2018-03-02T16:37:12.860Z,99268.96
2018-03-02T16:39:45.525Z,99283.05
2018-03-02T16:42:23.139Z,99292.94
2018-03-02T16:44:58.430Z,99285.58
2018-03-02T16:47:30.849Z,99286.38
2018-03-02T16:50:02.202Z,99288.95
2018-03-02T16:52:40.159Z,99287.00
2018-03-02T16:55:11.832Z,99286.38
2018-03-02T16:57:44.692Z,99301.93
2018-03-02T17:00:19.930Z,99298.25
2018-03-02T17:02:51.029Z,99307.92
2018-03-02T17:05:30.993Z,99304.45
2018-03-02T17:08:09.998Z,99306.11
2018-03-02T17:10:45.244Z,99306.85
2018-03-02T17:13:19.476Z,99311.12
2018-03-02T17:15:59.005Z,99318.38
2018-03-02T17:21:23.264Z,99324.81
2018-03-02T17:24:02.087Z,99317.06
2018-03-02T17:26:56.548Z,99329.23
2018-03-02T17:29:27.739Z,99330.31
2018-03-02T17:31:59.939Z,99336.02
2018-03-02T17:34:43.089Z,99333.45
2018-03-02T17:37:14.826Z,99346.58
2018-03-02T17:39:46.076Z,99353.03
2018-03-02T17:45:07.899Z,99358.02
2018-03-02T17:47:40.320Z,99350.41
2018-03-02T17:50:12.034Z,99359.46
2018-03-02T17:52:48.989Z,99352.66
2018-03-02T17:58:14.013Z,99361.31
2018-03-02T18:00:45.856Z,99353.60
2018-03-02T18:03:20.982Z,99368.35
2018-03-02T18:05:52.682Z,99366.27
2018-03-02T18:08:24.777Z,99369.23
2018-03-02T18:10:59.873Z,99380.61
2018-03-02T18:16:43.018Z,99382.66
2018-03-02T18:19:23.992Z,99387.29
2018-03-02T18:22:02.779Z,99383.73
2018-03-02T18:24:38.069Z,99387.81
2018-03-02T18:27:10.164Z,99391.92
2018-03-02T18:29:54.051Z,99384.66
2018-03-02T18:32:25.694Z,99386.94
2018-03-02T18:34:57.592Z,99390.81
2018-03-02T18:37:30.630Z,99384.31
2018-03-02T18:40:11.172Z,99381.47
2018-03-02T18:42:43.847Z,99392.09
2018-03-02T18:51:18.548Z,99393.91
2018-03-02T18:59:18.911Z,99412.17
2018-03-02T19:01:52.890Z,99410.22
2018-03-02T19:04:23.898Z,99411.15
2018-03-02T19:06:55.501Z,99410.45
2018-03-02T19:09:28.212Z,99410.19
2018-03-02T19:12:09.386Z,99421.00
2018-03-02T19:14:42.374Z,99412.93
2018-03-02T19:17:36.940Z,99417.80
2018-03-02T19:20:09.517Z,99420.70
2018-03-02T19:22:41.711Z,99403.44
2018-03-02T19:28:02.081Z,99413.72
2018-03-02T19:30:35.929Z,99407.37
2018-03-02T19:33:09.658Z,99411.23
2018-03-02T19:35:47.555Z,99409.93
2018-03-02T19:38:25.654Z,99414.35
2018-03-02T19:41:04.856Z,99422.98
2018-03-02T19:43:40.187Z,99420.55
2018-03-02T19:46:15.262Z,99406.55
2018-03-02T19:48:51.195Z,99422.16
2018-03-02T19:51:24.614Z,99421.91
2018-03-02T19:53:57.748Z,99419.94
2018-03-02T19:56:29.050Z,99428.28
2018-03-02T19:59:00.973Z,99430.65
2018-03-02T20:01:38.617Z,99432.48
2018-03-02T20:04:09.950Z,99424.80
2018-03-02T20:06:50.084Z,99423.00
2018-03-02T20:09:24.154Z,99429.41
2018-03-02T20:11:56.843Z,99434.22
2018-03-02T20:14:28.605Z,99428.41
2018-03-02T20:17:10.263Z,99429.50
2018-03-02T20:19:49.458Z,99434.83
2018-03-02T20:22:30.411Z,99433.81
2018-03-02T20:25:02.905Z,99438.63
2018-03-02T20:27:49.475Z,99445.73
2018-03-02T20:30:26.340Z,99443.58
2018-03-02T20:32:58.950Z,99443.55
2018-03-02T20:35:30.588Z,99446.60
2018-03-02T20:38:02.081Z,99452.83
2018-03-02T20:40:35.340Z,99444.27
2018-03-02T20:43:08.069Z,99449.31
2018-03-02T20:52:28.126Z,99451.79
2018-03-02T20:55:24.609Z,99460.37
2018-03-02T20:58:00.876Z,99471.75
2018-03-02T21:00:39.281Z,99467.28
2018-03-02T21:03:38.439Z,99469.60
2018-03-02T21:06:10.353Z,99447.73
2018-03-02T21:08:44.158Z,99462.97
2018-03-02T21:11:24.441Z,99469.86
2018-03-02T21:14:04.765Z,99467.83
2018-03-02T21:16:37.658Z,99456.16
2018-03-02T21:19:12.776Z,99426.86
2018-03-02T21:21:43.742Z,99449.60
2018-03-02T21:24:18.321Z,99464.06
2018-03-02T21:26:49.308Z,99462.39
2018-03-02T21:29:20.827Z,99463.33
2018-03-02T21:31:53.854Z,99457.70
2018-03-02T21:37:34.786Z,99462.00
2018-03-02T21:40:06.408Z,99467.06
2018-03-02T21:42:41.621Z,99461.72
2018-03-02T21:45:55.747Z,99460.31
2018-03-02T21:48:27.645Z,99459.67
2018-03-02T21:51:24.980Z,99452.75
2018-03-02T21:53:57.133Z,99451.73
2018-03-02T21:56:29.660Z,99450.62
2018-03-02T21:59:02.015Z,99453.66
2018-03-02T22:01:33.806Z,99445.39
2018-03-02T22:04:05.115Z,99451.57
2018-03-02T22:06:36.650Z,99446.63
2018-03-02T22:09:10.285Z,99444.86
2018-03-02T22:11:51.127Z,99449.62
2018-03-02T22:14:22.734Z,99452.28
2018-03-02T22:16:54.304Z,99429.09
2018-03-02T22:19:26.418Z,99399.27
2018-03-02T22:21:58.063Z,99444.34
2018-03-02T22:24:30.205Z,99437.74
2018-03-02T22:27:01.311Z,99432.67
2018-03-02T22:29:33.369Z,99437.20
2018-03-02T22:32:04.774Z,99432.28
2018-03-02T22:34:36.910Z,99434.82
2018-03-02T22:37:09.697Z,99429.04
2018-03-02T22:39:40.949Z,99431.48
2018-03-02T22:42:12.315Z,99424.84
2018-03-02T22:44:43.468Z,99425.03
2018-03-02T22:47:16.266Z,99423.77
2018-03-02T22:49:49.526Z,99430.97
2018-03-02T22:52:22.153Z,99427.00
2018-03-02T22:54:57.886Z,99426.48
2018-03-02T22:57:28.787Z,99430.04
2018-03-02T23:00:00.339Z,99428.06
2018-03-02T23:02:32.307Z,99434.92
2018-03-02T23:05:09.278Z,99429.36
2018-03-02T23:07:40.489Z,99425.95
2018-03-02T23:10:11.372Z,99421.09
2018-03-02T23:12:42.249Z,99423.56
2018-03-02T23:15:18.276Z,99422.19
2018-03-02T23:17:52.551Z,99415.59
2018-03-02T23:20:23.978Z,99418.95
2018-03-02T23:22:55.405Z,99415.50
2018-03-02T23:25:30.509Z,99411.04
2018-03-02T23:28:02.606Z,99409.93
2018-03-02T23:30:33.874Z,99413.80
2018-03-02T23:33:06.161Z,99411.88
2018-03-02T23:36:07.985Z,99415.23
2018-03-02T23:38:39.156Z,99415.80
2018-03-02T23:41:10.444Z,99413.72
2018-03-02T23:43:41.636Z,99412.36
2018-03-02T23:46:20.281Z,99414.17
2018-03-02T23:48:51.276Z,99414.13
2018-03-02T23:51:22.505Z,99409.41
2018-03-02T23:53:53.901Z,99411.77
2018-03-02T23:56:27.412Z,99412.72
2018-03-02T23:58:58.604Z,99406.95
